Mountain Village, Colorado
Current Conditions -  °F | °C
As of 3:15 PM on Thursday 23 Oct 2014 (Local Time) from KTEX Reporting Station
Clear Clear  
Wind Chill: 61°   Ceiling: Unl
Heat Index: 61°   Visibility: 10mi
Dew Point: 29°   Wind: 9mph
Humidity: 30%   Direction: 260°W
Pressure: 30.41"   Gusts: NA
Location:  37.9189°N, 107.878°W
Report Text: KTEX 232115Z AUTO 26008KT 10SM CLR 16/M02 A3041 RMK AO2 T01601018
Loading
Personal Weather Stations






























Interactive Weather Map
Tropical Storm Tracking
New forecast layout! Learn more

10-Day Weather Forecast

Advertisements
Track Severe Weather on mobile